RJOA/HIJ METAR and TAF weather

Enter ICAO airport designator
Station Type Date Time Source
RJOA METAR 2019/08/24 23:00 UTC NOAA

RJOA 242300Z 24003KT 190V290 5000 BR FEW001 SCT/// 21/18 Q1014


Station Type Date Time Source
RJOA Decoded METAR 2019/08/24 23:00 UTC NOAA

Station name not available
Aug 24, 2019 - 07:00 PM EDT / 2019.08.24 2300 UTC
Wind: from the WSW (240 degrees) at 3 MPH (3 KT) (direction variable):0
Visibility: 3 mile(s):0
Sky conditions: partly cloudy
Weather: mist
Temperature: 69 F (21 C)
Dew Point: 64 F (18 C)
Relative Humidity: 82%
Pressure (altimeter): 29.94 in. Hg (1014 hPa)
ob: RJOA 242300Z 24003KT 190V290 5000 BR FEW001 SCT/// 21/18 Q1014
cycle: 23

Station Type Date Time Source
RJOA TAF 2019/08/24 18:28 UTC NOAA

TAF RJOA 241707Z 2418/2600 28004KT 3000 BR BCFG FEW000 SCT005 BKN008
TEMPO 2418/2422 0900 FG FEW000 SCT001 BKN003
BECMG 2422/2500 9999 NSW FEW020 BKN040
BECMG 2521/2600 06005KT

Example: see airport list